createdAt,value
2023-04-08T00:01:48.441Z,3.40
2023-04-08T00:04:15.546Z,3.40
2023-04-08T00:06:42.369Z,3.40
2023-04-08T00:09:09.027Z,3.40
2023-04-08T00:11:35.984Z,3.40
2023-04-08T00:14:04.343Z,3.40
2023-04-08T00:16:31.298Z,3.40
2023-04-08T00:18:57.973Z,3.40
2023-04-08T00:21:24.682Z,3.40
2023-04-08T00:23:51.670Z,3.40
2023-04-08T00:26:18.349Z,3.50
2023-04-08T00:28:45.089Z,3.50
2023-04-08T00:31:11.847Z,3.50
2023-04-08T00:33:38.561Z,3.50
2023-04-08T00:36:05.458Z,3.50
2023-04-08T00:38:32.161Z,3.50
2023-04-08T00:40:58.879Z,3.50
2023-04-08T00:43:25.568Z,3.60
2023-04-08T00:45:52.418Z,3.60
2023-04-08T00:48:19.188Z,3.60
2023-04-08T00:50:47.138Z,3.60
2023-04-08T00:53:18.023Z,3.60
2023-04-08T00:55:45.317Z,3.70
2023-04-08T00:58:13.776Z,3.70
2023-04-08T01:00:46.457Z,3.80
2023-04-08T01:03:16.459Z,3.80
2023-04-08T01:05:59.907Z,3.80
2023-04-08T01:08:29.770Z,3.90
2023-04-08T01:11:01.018Z,4.00
2023-04-08T01:13:34.408Z,4.00
2023-04-08T01:16:01.461Z,4.00
2023-04-08T01:18:30.907Z,4.00
2023-04-08T01:20:59.112Z,4.10
2023-04-08T01:23:59.326Z,4.10
2023-04-08T01:26:26.894Z,4.10
2023-04-08T01:28:59.334Z,4.20
2023-04-08T01:31:26.956Z,4.20
2023-04-08T01:33:55.342Z,4.30
2023-04-08T01:36:24.271Z,4.30
2023-04-08T01:38:51.554Z,4.30
2023-04-08T01:41:19.536Z,4.40
2023-04-08T01:43:46.854Z,4.40
2023-04-08T01:46:14.097Z,4.40
2023-04-08T01:48:41.518Z,4.50
2023-04-08T01:51:09.606Z,4.50
2023-04-08T01:53:36.523Z,4.60
2023-04-08T01:56:07.660Z,4.60
2023-04-08T01:58:51.220Z,4.60
2023-04-08T02:01:20.998Z,4.70
2023-04-08T02:03:49.048Z,4.80
2023-04-08T02:06:15.804Z,4.90
2023-04-08T02:08:42.446Z,4.90
2023-04-08T02:11:09.829Z,5.00
2023-04-08T02:13:36.566Z,5.00
2023-04-08T02:16:22.366Z,5.10
2023-04-08T02:18:58.295Z,5.10
2023-04-08T02:21:33.344Z,5.10
2023-04-08T02:24:04.441Z,5.20
2023-04-08T02:26:36.207Z,5.10
2023-04-08T02:29:05.710Z,5.20
2023-04-08T02:31:33.656Z,5.20
2023-04-08T02:34:00.782Z,5.20
2023-04-08T02:36:27.857Z,5.20
2023-04-08T02:38:54.772Z,5.20
2023-04-08T02:41:21.618Z,5.20
2023-04-08T02:43:48.316Z,5.20
2023-04-08T02:46:15.606Z,5.20
2023-04-08T02:48:42.456Z,5.20
2023-04-08T02:51:09.125Z,5.20
2023-04-08T02:53:35.993Z,5.20
2023-04-08T02:56:02.709Z,5.20
2023-04-08T02:58:29.425Z,5.30
2023-04-08T03:00:56.244Z,5.30
2023-04-08T03:03:29.707Z,5.30
2023-04-08T03:05:57.124Z,5.30
2023-04-08T03:08:24.072Z,5.20
2023-04-08T03:10:50.938Z,5.30
2023-04-08T03:13:17.739Z,5.30
2023-04-08T03:15:44.461Z,5.30
2023-04-08T03:18:11.474Z,5.30
2023-04-08T03:20:38.113Z,5.30
2023-04-08T03:23:04.853Z,5.30
2023-04-08T03:25:31.656Z,5.30
2023-04-08T03:27:58.760Z,5.30
2023-04-08T03:30:26.163Z,5.30
2023-04-08T03:32:53.008Z,5.30
2023-04-08T03:35:19.932Z,5.30
2023-04-08T03:37:47.001Z,5.30
2023-04-08T03:40:14.033Z,5.30
2023-04-08T03:42:40.777Z,5.30
2023-04-08T03:45:07.891Z,5.30
2023-04-08T03:47:34.640Z,5.30
2023-04-08T03:50:01.382Z,5.30
2023-04-08T03:52:28.093Z,5.30
2023-04-08T03:54:54.763Z,5.30
2023-04-08T03:57:21.440Z,5.30
2023-04-08T03:59:48.083Z,5.30
2023-04-08T04:02:14.834Z,5.30
2023-04-08T04:04:41.813Z,5.30
2023-04-08T04:07:08.534Z,5.30
2023-04-08T04:09:35.481Z,5.30
2023-04-08T04:12:02.364Z,5.20
2023-04-08T04:14:29.007Z,5.20
2023-04-08T04:16:55.809Z,5.20
2023-04-08T04:19:22.518Z,5.20
2023-04-08T04:21:49.213Z,5.20
2023-04-08T04:24:15.951Z,5.10
2023-04-08T04:26:42.691Z,5.10
2023-04-08T04:29:09.361Z,5.10
2023-04-08T04:31:36.087Z,5.10
2023-04-08T04:34:02.899Z,5.10
2023-04-08T04:36:29.604Z,5.00
2023-04-08T04:38:56.773Z,5.00
2023-04-08T04:41:23.564Z,5.00
2023-04-08T04:43:50.447Z,5.00
2023-04-08T04:46:17.142Z,5.00
2023-04-08T04:48:43.962Z,5.00
2023-04-08T04:51:10.758Z,4.90
2023-04-08T04:53:37.356Z,4.90
2023-04-08T04:56:04.162Z,4.90
2023-04-08T04:58:30.979Z,4.90
2023-04-08T05:00:57.984Z,4.90
2023-04-08T05:03:24.827Z,4.90
2023-04-08T05:05:55.357Z,4.90
2023-04-08T05:08:22.358Z,4.90
2023-04-08T05:10:50.688Z,4.90
2023-04-08T05:13:18.317Z,4.90
2023-04-08T05:15:47.867Z,4.90
2023-04-08T05:18:14.845Z,4.90
2023-04-08T05:20:41.543Z,4.90
2023-04-08T05:23:08.664Z,4.90
2023-04-08T05:25:35.647Z,4.90
2023-04-08T05:28:02.607Z,4.90
2023-04-08T05:30:29.321Z,4.90
2023-04-08T05:32:59.381Z,4.90
2023-04-08T05:35:27.146Z,4.90
2023-04-08T05:37:53.836Z,5.00
2023-04-08T05:40:20.549Z,4.90
2023-04-08T05:42:47.244Z,5.00
2023-04-08T05:45:13.885Z,5.00
2023-04-08T05:47:40.588Z,5.00
2023-04-08T05:50:07.992Z,5.00
2023-04-08T05:52:34.612Z,5.00
2023-04-08T05:55:01.300Z,5.10
2023-04-08T05:57:27.993Z,5.00
2023-04-08T05:59:54.656Z,5.00
2023-04-08T06:02:21.645Z,5.10
2023-04-08T06:04:48.391Z,5.10
2023-04-08T06:07:15.451Z,5.10
2023-04-08T06:09:43.289Z,5.10
2023-04-08T06:12:11.546Z,5.10
2023-04-08T06:14:38.315Z,5.20
2023-04-08T06:17:05.168Z,5.20
2023-04-08T06:19:31.832Z,5.20
2023-04-08T06:21:59.179Z,5.20
2023-04-08T06:24:27.496Z,5.20
2023-04-08T06:26:54.367Z,5.30
2023-04-08T06:29:22.053Z,5.30
2023-04-08T06:31:49.390Z,5.30
2023-04-08T06:34:16.703Z,5.30
2023-04-08T06:36:43.982Z,5.40
2023-04-08T06:39:10.702Z,5.40
2023-04-08T06:41:37.375Z,5.40
2023-04-08T06:44:04.135Z,5.40
2023-04-08T06:46:30.782Z,5.40
2023-04-08T06:48:57.444Z,5.40
2023-04-08T06:51:24.123Z,5.50
2023-04-08T06:53:50.778Z,5.40
2023-04-08T06:56:17.421Z,5.50
2023-04-08T06:58:44.066Z,5.50
2023-04-08T07:01:11.131Z,5.50
2023-04-08T07:03:38.028Z,5.50
2023-04-08T07:06:05.202Z,5.50
2023-04-08T07:08:31.854Z,5.50
2023-04-08T07:10:58.576Z,5.60
2023-04-08T07:13:25.261Z,5.60
2023-04-08T07:15:52.111Z,5.60
2023-04-08T07:18:18.800Z,5.60
2023-04-08T07:20:45.471Z,5.70
2023-04-08T07:23:12.134Z,5.70
2023-04-08T07:25:38.812Z,5.70
2023-04-08T07:28:05.439Z,5.70
2023-04-08T07:30:32.194Z,5.70
2023-04-08T07:33:00.757Z,5.70
2023-04-08T07:35:28.121Z,5.80
2023-04-08T07:37:55.073Z,5.90
2023-04-08T07:40:21.851Z,5.90
2023-04-08T07:42:49.251Z,6.00
2023-04-08T07:45:16.064Z,6.10
2023-04-08T07:47:42.818Z,6.20
2023-04-08T07:50:09.808Z,6.30
2023-04-08T07:52:36.468Z,6.40
2023-04-08T07:55:03.243Z,6.40
2023-04-08T07:57:30.738Z,6.40
2023-04-08T07:59:57.461Z,6.40
2023-04-08T08:02:24.404Z,6.40
2023-04-08T08:04:51.450Z,6.30
2023-04-08T08:07:18.215Z,6.30
2023-04-08T08:09:44.934Z,6.30
2023-04-08T08:12:11.693Z,6.30
2023-04-08T08:14:38.852Z,6.30
2023-04-08T08:17:05.515Z,6.30
2023-04-08T08:19:32.186Z,6.40
2023-04-08T08:21:58.913Z,6.40
2023-04-08T08:24:26.033Z,6.40
2023-04-08T08:26:52.871Z,6.50
2023-04-08T08:29:19.533Z,6.60
2023-04-08T08:31:48.424Z,6.70
2023-04-08T08:34:15.481Z,6.70
2023-04-08T08:36:42.314Z,6.80
2023-04-08T08:39:09.040Z,6.90
2023-04-08T08:41:38.408Z,6.90
2023-04-08T08:44:09.913Z,7.00
2023-04-08T08:46:36.703Z,7.00
2023-04-08T08:49:03.449Z,7.00
2023-04-08T08:51:32.819Z,7.00
2023-04-08T08:54:02.795Z,7.10
2023-04-08T08:56:29.481Z,7.10
2023-04-08T08:58:56.174Z,7.10
2023-04-08T09:01:33.809Z,7.10
2023-04-08T09:04:21.125Z,7.00
2023-04-08T09:06:50.136Z,7.00
2023-04-08T09:09:18.016Z,7.00
2023-04-08T09:11:46.480Z,7.00
2023-04-08T09:14:19.945Z,7.00
2023-04-08T09:16:47.138Z,7.00
2023-04-08T09:19:14.278Z,7.00
2023-04-08T09:21:41.429Z,7.00
2023-04-08T09:24:09.574Z,6.90
2023-04-08T09:26:37.587Z,6.90
2023-04-08T09:29:18.267Z,6.90
2023-04-08T09:31:59.601Z,6.90
2023-04-08T09:34:28.072Z,6.90
2023-04-08T09:36:55.763Z,6.90
2023-04-08T09:39:22.822Z,6.80
2023-04-08T09:41:51.773Z,6.90
2023-04-08T09:44:23.528Z,6.90
2023-04-08T09:46:50.284Z,7.10
2023-04-08T09:49:29.845Z,7.10
2023-04-08T09:52:06.173Z,7.20
2023-04-08T09:54:56.230Z,7.20
2023-04-08T09:57:37.008Z,7.30
2023-04-08T10:00:28.867Z,7.40
2023-04-08T10:03:21.282Z,7.50
2023-04-08T10:05:49.641Z,7.50
2023-04-08T10:08:16.734Z,7.40
2023-04-08T10:10:46.109Z,7.40
2023-04-08T10:13:13.685Z,7.40
2023-04-08T10:15:44.207Z,7.20
2023-04-08T10:18:11.152Z,7.20
2023-04-08T10:20:37.970Z,7.20
2023-04-08T10:23:10.358Z,7.30
2023-04-08T10:25:41.634Z,7.40
2023-04-08T10:28:11.322Z,7.40
2023-04-08T10:30:47.571Z,7.40
2023-04-08T10:33:32.938Z,7.40
2023-04-08T10:36:06.794Z,7.50
2023-04-08T10:38:33.855Z,7.50
2023-04-08T10:41:00.649Z,7.60
2023-04-08T10:43:33.801Z,7.60
2023-04-08T10:46:01.536Z,7.60
2023-04-08T10:48:31.342Z,7.70
2023-04-08T10:50:59.593Z,7.70
2023-04-08T10:53:27.929Z,7.70
2023-04-08T10:56:03.342Z,7.70
2023-04-08T10:58:30.751Z,7.70
2023-04-08T11:01:04.376Z,7.80
2023-04-08T11:03:37.241Z,7.70
2023-04-08T11:06:15.725Z,7.70
2023-04-08T11:08:42.508Z,7.70
2023-04-08T11:11:10.745Z,7.80
2023-04-08T11:13:41.620Z,7.80
2023-04-08T11:16:18.317Z,7.70
2023-04-08T11:18:45.955Z,7.70
2023-04-08T11:21:12.849Z,7.70
2023-04-08T11:23:39.660Z,7.70
2023-04-08T11:26:06.941Z,7.70
2023-04-08T11:28:35.488Z,7.80
2023-04-08T11:31:05.787Z,7.90
2023-04-08T11:33:33.008Z,8.00
2023-04-08T11:36:04.179Z,8.00
2023-04-08T11:38:31.046Z,8.20
2023-04-08T11:40:59.414Z,8.30
2023-04-08T11:43:27.042Z,8.30
2023-04-08T11:45:53.835Z,8.40
2023-04-08T11:48:20.547Z,8.50
2023-04-08T11:50:47.432Z,8.60
2023-04-08T11:53:21.586Z,8.70
2023-04-08T11:55:49.081Z,8.90
2023-04-08T11:58:15.973Z,9.00
2023-04-08T12:00:43.673Z,9.00
2023-04-08T12:03:11.453Z,9.10
2023-04-08T12:05:38.331Z,9.20
2023-04-08T12:08:05.180Z,9.20
2023-04-08T12:10:31.880Z,9.20
2023-04-08T12:12:58.601Z,9.20
2023-04-08T12:15:25.384Z,9.20
2023-04-08T12:17:52.183Z,9.30
2023-04-08T12:20:19.028Z,9.30
2023-04-08T12:22:45.821Z,9.30
2023-04-08T12:25:12.576Z,9.30
2023-04-08T12:27:39.307Z,9.20
2023-04-08T12:30:06.549Z,9.10
2023-04-08T12:32:33.608Z,9.10
2023-04-08T12:35:00.544Z,9.20
2023-04-08T12:37:28.001Z,9.10
2023-04-08T12:39:54.732Z,9.10
2023-04-08T12:42:21.640Z,9.20
2023-04-08T12:44:48.401Z,9.30
2023-04-08T12:47:15.631Z,9.40
2023-04-08T12:49:49.217Z,9.40
2023-04-08T12:52:17.664Z,9.50
2023-04-08T12:54:44.627Z,9.40
2023-04-08T12:57:11.319Z,9.30
2023-04-08T12:59:39.852Z,9.30
2023-04-08T13:02:07.739Z,9.30
2023-04-08T13:04:34.848Z,9.30
2023-04-08T13:07:01.595Z,9.30
2023-04-08T13:09:30.007Z,9.40
2023-04-08T13:11:56.648Z,9.40
2023-04-08T13:14:23.295Z,9.50
2023-04-08T13:16:50.063Z,9.50
2023-04-08T13:19:16.888Z,9.50
2023-04-08T13:21:45.527Z,9.50
2023-04-08T13:24:12.883Z,9.50
2023-04-08T13:26:39.594Z,9.70
2023-04-08T13:29:06.803Z,9.70
2023-04-08T13:31:33.603Z,9.80
2023-04-08T13:34:00.671Z,9.90
2023-04-08T13:36:28.895Z,10.00
2023-04-08T13:38:56.516Z,10.10
2023-04-08T13:41:23.696Z,10.20
2023-04-08T13:43:50.653Z,10.40
2023-04-08T13:46:18.180Z,10.60
2023-04-08T13:48:46.051Z,10.70
2023-04-08T13:51:12.901Z,10.70
2023-04-08T13:53:39.700Z,10.80
2023-04-08T13:56:06.941Z,11.00
2023-04-08T13:58:33.842Z,11.20
2023-04-08T14:01:00.662Z,11.20
2023-04-08T14:03:29.436Z,11.30
2023-04-08T14:05:57.540Z,11.50
2023-04-08T14:08:25.907Z,11.60
2023-04-08T14:10:55.768Z,11.60
2023-04-08T14:13:22.702Z,11.70
2023-04-08T14:15:50.001Z,12.00
2023-04-08T14:18:19.466Z,12.20
2023-04-08T14:20:46.228Z,12.40
2023-04-08T14:23:17.080Z,12.30
2023-04-08T14:25:44.077Z,12.20
2023-04-08T14:28:11.493Z,12.10
2023-04-08T14:30:38.253Z,12.00
2023-04-08T14:33:05.617Z,12.10
2023-04-08T14:35:32.617Z,12.20
2023-04-08T14:37:59.943Z,12.40
2023-04-08T14:40:26.731Z,12.60
2023-04-08T14:42:53.930Z,12.70
2023-04-08T14:45:20.682Z,12.90
2023-04-08T14:47:47.457Z,13.00
2023-04-08T14:50:14.199Z,13.00
2023-04-08T14:52:41.041Z,12.80
2023-04-08T14:55:07.942Z,12.70
2023-04-08T14:57:34.707Z,12.50
2023-04-08T15:00:01.855Z,12.50
2023-04-08T15:02:28.792Z,12.30
2023-04-08T15:04:55.710Z,12.20
2023-04-08T15:07:22.689Z,12.30
2023-04-08T15:09:49.403Z,12.30
2023-04-08T15:12:16.113Z,12.40
2023-04-08T15:14:42.830Z,12.30
2023-04-08T15:17:10.205Z,12.30
2023-04-08T15:19:36.958Z,12.20
2023-04-08T15:22:03.769Z,12.10
2023-04-08T15:24:30.655Z,11.90
2023-04-08T15:26:57.549Z,11.70
2023-04-08T15:29:24.669Z,11.60
2023-04-08T15:31:52.511Z,11.40
2023-04-08T15:34:19.280Z,11.30
2023-04-08T15:36:47.520Z,11.20
2023-04-08T15:39:14.847Z,11.00
2023-04-08T15:41:41.561Z,11.00
2023-04-08T15:44:08.411Z,10.90
2023-04-08T15:46:37.410Z,10.90
2023-04-08T15:49:04.674Z,10.90
2023-04-08T15:51:32.326Z,10.90
2023-04-08T15:53:59.701Z,10.90
2023-04-08T15:56:28.324Z,10.80
2023-04-08T15:58:56.507Z,10.70
2023-04-08T16:01:23.445Z,10.70
2023-04-08T16:03:50.592Z,10.70
2023-04-08T16:06:17.703Z,10.60
2023-04-08T16:08:46.825Z,10.60
2023-04-08T16:11:13.714Z,10.50
2023-04-08T16:13:42.316Z,10.50
2023-04-08T16:16:09.233Z,10.40
2023-04-08T16:18:36.167Z,10.40
2023-04-08T16:21:05.701Z,10.40
2023-04-08T16:23:34.211Z,10.30
2023-04-08T16:26:01.709Z,10.30
2023-04-08T16:28:28.614Z,10.20
2023-04-08T16:30:55.975Z,10.20
2023-04-08T16:33:29.678Z,10.20
2023-04-08T16:36:00.575Z,10.20
2023-04-08T16:38:27.752Z,10.20
2023-04-08T16:40:58.324Z,10.10
2023-04-08T16:43:25.950Z,10.00
2023-04-08T16:45:53.224Z,10.00
2023-04-08T16:48:20.084Z,10.00
2023-04-08T16:50:46.823Z,9.90
2023-04-08T16:53:13.574Z,9.90
2023-04-08T16:55:40.416Z,9.80
2023-04-08T16:58:07.384Z,9.80
2023-04-08T17:00:34.354Z,9.60
2023-04-08T17:03:01.693Z,9.60
2023-04-08T17:05:28.620Z,9.60
2023-04-08T17:07:58.918Z,9.50
2023-04-08T17:10:25.656Z,9.50
2023-04-08T17:12:52.370Z,9.50
2023-04-08T17:15:19.053Z,9.40
2023-04-08T17:17:46.456Z,9.40
2023-04-08T17:20:13.500Z,9.30
2023-04-08T17:22:40.224Z,9.30
2023-04-08T17:25:07.848Z,9.20
2023-04-08T17:27:35.772Z,9.20
2023-04-08T17:30:02.623Z,9.20
2023-04-08T17:32:29.299Z,9.20
2023-04-08T17:34:56.200Z,9.20
2023-04-08T17:37:22.904Z,9.20
2023-04-08T17:39:49.545Z,9.10
2023-04-08T17:42:16.883Z,9.10
2023-04-08T17:44:44.700Z,9.10
2023-04-08T17:47:11.473Z,9.10
2023-04-08T17:49:38.214Z,9.10
2023-04-08T17:52:06.126Z,9.00
2023-04-08T17:54:34.431Z,8.90
2023-04-08T17:57:01.630Z,8.90
2023-04-08T17:59:28.370Z,8.90
2023-04-08T18:01:55.396Z,8.80
2023-04-08T18:04:22.812Z,8.80
2023-04-08T18:06:49.601Z,8.80
2023-04-08T18:09:16.282Z,8.80
2023-04-08T18:11:42.980Z,8.70
2023-04-08T18:14:09.789Z,8.60
2023-04-08T18:16:36.593Z,8.70
2023-04-08T18:19:03.355Z,8.60
2023-04-08T18:21:29.978Z,8.60
2023-04-08T18:23:56.642Z,8.60
2023-04-08T18:26:23.427Z,8.50
2023-04-08T18:28:50.208Z,8.50
2023-04-08T18:31:16.950Z,8.50
2023-04-08T18:33:43.732Z,8.50
2023-04-08T18:36:14.914Z,8.50
2023-04-08T18:38:41.842Z,8.50
2023-04-08T18:41:08.668Z,8.50
2023-04-08T18:43:35.551Z,8.50
2023-04-08T18:46:02.419Z,8.40
2023-04-08T18:48:29.512Z,8.50
2023-04-08T18:50:56.654Z,8.40
2023-04-08T18:53:23.376Z,8.40
2023-04-08T18:55:51.174Z,8.40
2023-04-08T18:58:18.228Z,8.30
2023-04-08T19:00:45.112Z,8.30
2023-04-08T19:03:11.954Z,8.40
2023-04-08T19:05:38.815Z,8.30
2023-04-08T19:08:06.357Z,8.30
2023-04-08T19:10:34.408Z,8.30
2023-04-08T19:13:01.801Z,8.30
2023-04-08T19:15:29.001Z,8.20
2023-04-08T19:17:56.775Z,8.20
2023-04-08T19:20:23.955Z,8.20
2023-04-08T19:22:51.248Z,8.20
2023-04-08T19:25:18.131Z,8.20
2023-04-08T19:27:46.018Z,8.20
2023-04-08T19:30:13.433Z,8.20
2023-04-08T19:32:40.553Z,8.10
2023-04-08T19:35:08.070Z,8.20
2023-04-08T19:37:34.963Z,8.10
2023-04-08T19:40:01.869Z,8.10
2023-04-08T19:42:29.287Z,8.00
2023-04-08T19:44:56.200Z,8.00
2023-04-08T19:47:22.998Z,8.00
2023-04-08T19:49:50.022Z,7.90
2023-04-08T19:52:16.817Z,7.90
2023-04-08T19:54:43.729Z,7.90
2023-04-08T19:57:10.910Z,7.80
2023-04-08T19:59:38.248Z,7.80
2023-04-08T20:02:05.245Z,7.80
2023-04-08T20:04:32.708Z,7.80
2023-04-08T20:07:03.484Z,7.70
2023-04-08T20:09:33.324Z,7.70
2023-04-08T20:12:06.401Z,7.70
2023-04-08T20:14:35.739Z,7.70
2023-04-08T20:17:04.333Z,7.70
2023-04-08T20:19:31.202Z,7.60
2023-04-08T20:21:57.939Z,7.60
2023-04-08T20:24:24.828Z,7.60
2023-04-08T20:26:52.475Z,7.50
2023-04-08T20:29:19.327Z,7.50
2023-04-08T20:31:46.317Z,7.50
2023-04-08T20:34:13.423Z,7.50
2023-04-08T20:36:40.332Z,7.40
2023-04-08T20:39:10.502Z,7.40
2023-04-08T20:41:37.699Z,7.40
2023-04-08T20:44:07.042Z,7.40
2023-04-08T20:46:35.147Z,7.40
2023-04-08T20:49:03.504Z,7.40
2023-04-08T20:51:31.009Z,7.40
2023-04-08T20:53:58.407Z,7.40
2023-04-08T20:56:26.472Z,7.40
2023-04-08T20:58:53.716Z,7.40
2023-04-08T21:01:21.580Z,7.40
2023-04-08T21:03:49.411Z,7.40
2023-04-08T21:06:20.273Z,7.40
2023-04-08T21:08:47.350Z,7.40
2023-04-08T21:11:14.923Z,7.40
2023-04-08T21:13:41.940Z,7.40
2023-04-08T21:16:08.784Z,7.40
2023-04-08T21:18:38.903Z,7.40
2023-04-08T21:21:06.295Z,7.40
2023-04-08T21:23:33.028Z,7.40
2023-04-08T21:26:01.320Z,7.30
2023-04-08T21:28:29.465Z,7.40
2023-04-08T21:30:56.568Z,7.30
2023-04-08T21:33:23.206Z,7.30
2023-04-08T21:35:49.901Z,7.30
2023-04-08T21:38:16.607Z,7.30
2023-04-08T21:40:43.301Z,7.30
2023-04-08T21:43:09.954Z,7.30
2023-04-08T21:45:36.656Z,7.20
2023-04-08T21:48:03.383Z,7.20
2023-04-08T21:50:31.256Z,7.20
2023-04-08T21:52:57.917Z,7.10
2023-04-08T21:55:25.729Z,7.20
2023-04-08T21:57:52.390Z,7.10
2023-04-08T22:00:19.082Z,7.10
2023-04-08T22:02:45.999Z,7.10
2023-04-08T22:05:12.730Z,7.10
2023-04-08T22:07:39.553Z,7.00
2023-04-08T22:10:07.356Z,7.00
2023-04-08T22:12:34.599Z,7.00
2023-04-08T22:15:01.300Z,6.90
2023-04-08T22:17:28.070Z,6.90
2023-04-08T22:19:54.866Z,6.90
2023-04-08T22:22:21.577Z,6.80
2023-04-08T22:24:48.354Z,6.80
2023-04-08T22:27:15.100Z,6.80
2023-04-08T22:29:41.847Z,6.80
2023-04-08T22:32:08.535Z,6.80
2023-04-08T22:34:36.669Z,6.80
2023-04-08T22:37:03.317Z,6.80
2023-04-08T22:39:30.086Z,6.80
2023-04-08T22:41:57.452Z,6.80
2023-04-08T22:44:24.202Z,6.80
2023-04-08T22:46:51.541Z,6.80
2023-04-08T22:49:18.218Z,6.70
2023-04-08T22:51:44.844Z,6.70
2023-04-08T22:54:11.611Z,6.70
2023-04-08T22:56:38.317Z,6.70
2023-04-08T22:59:05.001Z,6.70
2023-04-08T23:01:31.861Z,6.80
2023-04-08T23:03:58.727Z,6.70
2023-04-08T23:06:27.393Z,6.70
2023-04-08T23:08:54.253Z,6.70
2023-04-08T23:11:21.318Z,6.70
2023-04-08T23:13:48.064Z,6.70
2023-04-08T23:16:14.981Z,6.70
2023-04-08T23:18:41.670Z,6.70
2023-04-08T23:21:08.465Z,6.70
2023-04-08T23:23:35.217Z,6.70
2023-04-08T23:26:01.894Z,6.60
2023-04-08T23:28:28.579Z,6.60
2023-04-08T23:30:55.414Z,6.60
2023-04-08T23:33:22.174Z,6.60
2023-04-08T23:35:48.992Z,6.60
2023-04-08T23:38:15.922Z,6.60
2023-04-08T23:40:42.650Z,6.60
2023-04-08T23:43:09.558Z,6.60
2023-04-08T23:45:36.260Z,6.50
2023-04-08T23:48:03.030Z,6.50
2023-04-08T23:50:29.874Z,6.50
2023-04-08T23:52:56.666Z,6.50
2023-04-08T23:55:23.504Z,6.50
2023-04-08T23:57:50.935Z,6.50
